Chafford Hundred, United Kingdom
Current Conditions -  °F | °C
As of 8:50 AM on Thursday 23 Oct 2014 (Local Time) from EGLC Reporting Station
Broken Clouds Broken Clouds  
Wind Chill: 14°   Ceiling: 3000
Heat Index: 14°   Visibility: 6mi
Dew Point:   Wind: 12mph
Humidity: 67%   Direction: 250°WSW
Pressure: 30.15"   Gusts: NA
Location:  51.49°N, 0.29°E
Report Text: EGLC 230750Z 25010KT 9999 BKN030 14/08 Q1021
Loading
Personal Weather Stations






























Interactive Weather Map
Tropical Storm Tracking
New forecast layout! Learn more

10-Day Weather Forecast

Advertisements
Track Severe Weather on mobile